Terminal Aerodrome Forecast
Issued by NWS

Home | Current Version | Previous Version | Text Only | Print | Product List | Glossary Off
Versions: 1 2 3 4 5 6 7 8 9 10 11 12 13 14 15 16 17

000
FTUS41 KCLE 040500
TAFFDY
TAF
KFDY 040540Z 0406/0506 18008KT P6SM BKN120 OVC250
     FM041400 22015G25KT P6SM SCT050 BKN100
     FM042000 23015G25KT P6SM VCTS OVC050CB
      TEMPO 0422/0424 1 1/2SM -TSRA BR BKN025CB OVC035
     FM050300 24006KT 6SM BR SCT025 OVC035=

USA.gov is the U.S. government's official web portal to all federal, state and local government web resources and services.